Isle of Man Airport

Airport
ICAO code: 
EGNS
IATA Code: 
IOM
Summary
ICAO Region: 
EUR
Territory: 
Location: 
Near Castletown, Isle of Man
Serving: 
Isle of Man
Elevation: 
52 ft
Coordinates: 
Aerial View: 
54° 4' 56.293" N, 4° 37' 37.059" W
Metar
Observation
EGNS 201120Z 20018KT 9999 -RA FEW004 SCT007 13/11 Q1012 TEMPO BKN007
Station
Isle Of Man / Ronaldsway Airport
Date/Time
2022-05-20 11:20:00
Wind direction
200°
Wind speed
18 kts
Lowest cloud amount
few clouds
Temperature
13°C
Dew point
11°C
Humidity
87%
QNH
1012 hPa
Weather condition
light rain

Description

Also formerly known as Ronaldsway Airport, the airport serves the whole of the Isle of Man, a self-governing British Crown Dependency.

Climatology

Temperate Marine climate/Oceanic climate (Köppen climate classification Cfb). Moderately cool summer and comparatively warm winter with a temperature range of only 14°C. Prevailing winds are south-westerly and whilst there is almost no risk of winter radiation fog or summer thunderstorms, the airport is exposed to a significant risk of advection fog between April and August.

Runways

Designator Length Width Surface Rops
17/35 903 27 ASP No/No
3/21 1255 46 ASP Yes/Yes
8/26 1837 46 ASP Yes/Yes
Airport map: 
Aerial View: 

Accidents and Serious Incidents at or in the vicinity of EGNS

SKYbrary Partners:

Safety knowledge contributed by: